sensor_id;sensor_type;location;lat;lon;timestamp;pressure;altitude;pressure_sealevel;temperature;humidity
19600;BME280;9947;57.722;12.012;2023-12-20T00:00:37;100301.84;;;2.93;100.00
19600;BME280;9947;57.722;12.012;2023-12-20T00:03:12;100292.13;;;2.92;100.00
19600;BME280;9947;57.722;12.012;2023-12-20T00:05:40;100307.97;;;2.95;100.00
19600;BME280;9947;57.722;12.012;2023-12-20T00:08:12;100290.56;;;2.88;100.00
19600;BME280;9947;57.722;12.012;2023-12-20T00:10:41;100293.34;;;2.85;100.00
19600;BME280;9947;57.722;12.012;2023-12-20T00:13:09;100285.50;;;2.82;100.00
19600;BME280;9947;57.722;12.012;2023-12-20T00:15:52;100299.66;;;2.66;100.00
19600;BME280;9947;57.722;12.012;2023-12-20T00:18:31;100282.88;;;2.64;100.00
19600;BME280;9947;57.722;12.012;2023-12-20T00:21:00;100290.63;;;2.69;100.00
19600;BME280;9947;57.722;12.012;2023-12-20T00:23:29;100288.75;;;2.71;100.00
19600;BME280;9947;57.722;12.012;2023-12-20T00:26:12;100286.44;;;2.81;100.00
19600;BME280;9947;57.722;12.012;2023-12-20T00:28:41;100280.34;;;2.78;100.00
19600;BME280;9947;57.722;12.012;2023-12-20T00:31:29;100276.81;;;2.78;100.00
19600;BME280;9947;57.722;12.012;2023-12-20T00:34:01;100276.03;;;2.76;100.00
19600;BME280;9947;57.722;12.012;2023-12-20T00:36:34;100267.31;;;2.72;100.00
19600;BME280;9947;57.722;12.012;2023-12-20T00:39:06;100265.50;;;2.73;100.00
19600;BME280;9947;57.722;12.012;2023-12-20T00:41:35;100252.78;;;2.78;100.00
19600;BME280;9947;57.722;12.012;2023-12-20T00:44:04;100263.44;;;2.78;100.00
19600;BME280;9947;57.722;12.012;2023-12-20T00:46:37;100254.13;;;2.87;100.00
19600;BME280;9947;57.722;12.012;2023-12-20T00:49:07;100258.34;;;2.91;100.00
19600;BME280;9947;57.722;12.012;2023-12-20T00:51:35;100253.53;;;2.97;100.00
19600;BME280;9947;57.722;12.012;2023-12-20T00:54:05;100243.56;;;3.01;100.00
19600;BME280;9947;57.722;12.012;2023-12-20T00:56:37;100247.00;;;3.03;100.00
19600;BME280;9947;57.722;12.012;2023-12-20T00:59:07;100241.75;;;3.01;100.00
19600;BME280;9947;57.722;12.012;2023-12-20T01:01:41;100236.66;;;2.97;100.00
19600;BME280;9947;57.722;12.012;2023-12-20T01:04:12;100230.38;;;2.98;100.00
19600;BME280;9947;57.722;12.012;2023-12-20T01:06:41;100228.41;;;3.01;100.00
19600;BME280;9947;57.722;12.012;2023-12-20T01:09:09;100220.72;;;2.95;100.00
19600;BME280;9947;57.722;12.012;2023-12-20T01:11:49;100217.03;;;2.98;100.00
19600;BME280;9947;57.722;12.012;2023-12-20T01:14:16;100213.75;;;2.93;100.00
19600;BME280;9947;57.722;12.012;2023-12-20T01:16:59;100192.84;;;2.84;100.00
19600;BME280;9947;57.722;12.012;2023-12-20T01:19:43;100185.50;;;2.89;100.00
19600;BME280;9947;57.722;12.012;2023-12-20T01:22:25;100183.34;;;2.95;100.00
19600;BME280;9947;57.722;12.012;2023-12-20T01:24:55;100181.28;;;3.00;100.00
19600;BME280;9947;57.722;12.012;2023-12-20T01:27:23;100175.25;;;2.97;100.00
19600;BME280;9947;57.722;12.012;2023-12-20T01:29:50;100174.75;;;3.06;100.00
19600;BME280;9947;57.722;12.012;2023-12-20T01:32:19;100164.84;;;3.08;100.00
19600;BME280;9947;57.722;12.012;2023-12-20T01:34:51;100159.50;;;3.08;100.00
19600;BME280;9947;57.722;12.012;2023-12-20T01:37:34;100140.13;;;3.04;100.00
19600;BME280;9947;57.722;12.012;2023-12-20T01:40:01;100134.09;;;3.01;100.00
19600;BME280;9947;57.722;12.012;2023-12-20T01:42:32;100115.38;;;3.01;100.00
19600;BME280;9947;57.722;12.012;2023-12-20T01:45:01;100114.53;;;3.00;100.00
19600;BME280;9947;57.722;12.012;2023-12-20T01:47:32;100110.75;;;3.04;100.00
19600;BME280;9947;57.722;12.012;2023-12-20T01:50:04;100111.41;;;3.08;100.00
19600;BME280;9947;57.722;12.012;2023-12-20T01:52:34;100096.09;;;3.12;100.00
19600;BME280;9947;57.722;12.012;2023-12-20T01:55:03;100087.06;;;3.14;100.00
19600;BME280;9947;57.722;12.012;2023-12-20T01:57:39;100081.56;;;3.17;100.00
19600;BME280;9947;57.722;12.012;2023-12-20T02:00:08;100061.13;;;3.16;100.00
19600;BME280;9947;57.722;12.012;2023-12-20T02:02:39;100046.47;;;3.23;100.00
19600;BME280;9947;57.722;12.012;2023-12-20T02:05:10;100049.22;;;3.22;100.00
19600;BME280;9947;57.722;12.012;2023-12-20T02:07:37;100040.00;;;3.27;100.00
19600;BME280;9947;57.722;12.012;2023-12-20T02:10:06;100031.97;;;3.27;100.00
19600;BME280;9947;57.722;12.012;2023-12-20T02:12:35;100023.88;;;3.29;100.00
19600;BME280;9947;57.722;12.012;2023-12-20T02:15:05;100009.94;;;3.24;100.00
19600;BME280;9947;57.722;12.012;2023-12-20T02:17:48;100006.50;;;3.22;100.00
19600;BME280;9947;57.722;12.012;2023-12-20T02:20:20;99996.50;;;3.25;100.00
19600;BME280;9947;57.722;12.012;2023-12-20T02:23:02;99994.59;;;3.27;100.00
19600;BME280;9947;57.722;12.012;2023-12-20T02:25:30;99996.50;;;3.25;100.00
19600;BME280;9947;57.722;12.012;2023-12-20T02:27:59;99983.81;;;3.29;100.00
19600;BME280;9947;57.722;12.012;2023-12-20T02:30:30;99966.16;;;3.26;100.00
19600;BME280;9947;57.722;12.012;2023-12-20T02:33:04;99955.38;;;3.28;100.00
19600;BME280;9947;57.722;12.012;2023-12-20T02:35:36;99951.94;;;3.26;100.00
19600;BME280;9947;57.722;12.012;2023-12-20T02:38:07;99948.31;;;3.27;100.00
19600;BME280;9947;57.722;12.012;2023-12-20T02:40:34;99951.28;;;3.22;100.00
19600;BME280;9947;57.722;12.012;2023-12-20T02:43:02;99943.06;;;3.25;100.00
19600;BME280;9947;57.722;12.012;2023-12-20T02:45:30;99942.88;;;3.28;100.00
19600;BME280;9947;57.722;12.012;2023-12-20T02:47:59;99942.31;;;3.23;100.00
19600;BME280;9947;57.722;12.012;2023-12-20T02:50:40;99942.03;;;3.28;100.00
19600;BME280;9947;57.722;12.012;2023-12-20T02:53:19;99937.63;;;3.27;100.00
19600;BME280;9947;57.722;12.012;2023-12-20T02:55:50;99922.75;;;3.37;100.00
19600;BME280;9947;57.722;12.012;2023-12-20T02:58:19;99921.91;;;3.36;100.00
19600;BME280;9947;57.722;12.012;2023-12-20T03:00:47;99906.06;;;3.33;100.00
19600;BME280;9947;57.722;12.012;2023-12-20T03:03:17;99912.09;;;3.37;100.00
19600;BME280;9947;57.722;12.012;2023-12-20T03:05:45;99893.22;;;3.40;100.00
19600;BME280;9947;57.722;12.012;2023-12-20T03:08:14;99882.69;;;3.37;100.00
19600;BME280;9947;57.722;12.012;2023-12-20T03:10:47;99888.56;;;3.44;100.00
19600;BME280;9947;57.722;12.012;2023-12-20T03:13:28;99875.84;;;3.47;100.00
19600;BME280;9947;57.722;12.012;2023-12-20T03:15:58;99875.28;;;3.42;100.00
19600;BME280;9947;57.722;12.012;2023-12-20T03:18:25;99860.97;;;3.43;100.00
19600;BME280;9947;57.722;12.012;2023-12-20T03:20:56;99849.13;;;3.47;100.00
19600;BME280;9947;57.722;12.012;2023-12-20T03:23:40;99846.84;;;3.41;100.00
19600;BME280;9947;57.722;12.012;2023-12-20T03:26:13;99846.00;;;3.40;100.00
19600;BME280;9947;57.722;12.012;2023-12-20T03:28:42;99841.50;;;3.41;100.00
19600;BME280;9947;57.722;12.012;2023-12-20T03:31:11;99839.00;;;3.38;100.00
19600;BME280;9947;57.722;12.012;2023-12-20T03:33:42;99844.19;;;3.41;100.00
19600;BME280;9947;57.722;12.012;2023-12-20T03:36:10;99848.91;;;3.36;100.00
19600;BME280;9947;57.722;12.012;2023-12-20T03:38:40;99866.19;;;3.30;100.00
19600;BME280;9947;57.722;12.012;2023-12-20T03:41:08;99871.81;;;3.26;100.00
19600;BME280;9947;57.722;12.012;2023-12-20T03:43:37;99872.28;;;3.18;100.00
19600;BME280;9947;57.722;12.012;2023-12-20T03:46:07;99849.28;;;3.16;100.00
19600;BME280;9947;57.722;12.012;2023-12-20T03:48:39;99848.59;;;3.12;100.00
19600;BME280;9947;57.722;12.012;2023-12-20T03:51:10;99865.56;;;3.11;100.00
19600;BME280;9947;57.722;12.012;2023-12-20T03:53:42;99856.97;;;3.06;100.00
19600;BME280;9947;57.722;12.012;2023-12-20T03:56:11;99867.84;;;3.03;100.00
19600;BME280;9947;57.722;12.012;2023-12-20T03:58:41;99862.84;;;3.13;100.00
19600;BME280;9947;57.722;12.012;2023-12-20T04:01:21;99852.16;;;3.13;100.00
19600;BME280;9947;57.722;12.012;2023-12-20T04:03:54;99852.91;;;3.15;100.00
19600;BME280;9947;57.722;12.012;2023-12-20T04:06:41;99857.97;;;3.19;100.00
19600;BME280;9947;57.722;12.012;2023-12-20T04:09:16;99853.78;;;3.15;100.00
19600;BME280;9947;57.722;12.012;2023-12-20T04:14:56;99849.78;;;3.22;100.00
19600;BME280;9947;57.722;12.012;2023-12-20T04:17:39;99853.41;;;3.21;100.00
19600;BME280;9947;57.722;12.012;2023-12-20T04:20:12;99855.31;;;3.19;100.00
19600;BME280;9947;57.722;12.012;2023-12-20T04:22:44;99864.56;;;3.14;100.00
19600;BME280;9947;57.722;12.012;2023-12-20T04:25:13;99868.84;;;3.16;100.00
19600;BME280;9947;57.722;12.012;2023-12-20T04:27:42;99877.81;;;3.15;100.00
19600;BME280;9947;57.722;12.012;2023-12-20T04:30:11;99875.56;;;3.07;100.00
19600;BME280;9947;57.722;12.012;2023-12-20T04:32:40;99872.81;;;3.09;100.00
19600;BME280;9947;57.722;12.012;2023-12-20T04:35:08;99879.47;;;3.02;100.00
19600;BME280;9947;57.722;12.012;2023-12-20T04:37:36;99888.84;;;3.09;100.00
19600;BME280;9947;57.722;12.012;2023-12-20T04:40:09;99875.38;;;3.10;100.00
19600;BME280;9947;57.722;12.012;2023-12-20T04:42:37;99873.00;;;3.06;100.00
19600;BME280;9947;57.722;12.012;2023-12-20T04:45:05;99868.41;;;2.94;100.00
19600;BME280;9947;57.722;12.012;2023-12-20T04:47:34;99872.59;;;2.98;100.00
19600;BME280;9947;57.722;12.012;2023-12-20T04:50:02;99867.44;;;2.95;100.00
19600;BME280;9947;57.722;12.012;2023-12-20T04:52:33;99876.13;;;2.98;100.00
19600;BME280;9947;57.722;12.012;2023-12-20T04:57:32;99868.34;;;3.09;100.00
19600;BME280;9947;57.722;12.012;2023-12-20T05:02:25;99871.72;;;3.13;100.00
19600;BME280;9947;57.722;12.012;2023-12-20T05:07:39;99862.75;;;3.14;100.00
19600;BME280;9947;57.722;12.012;2023-12-20T05:10:11;99873.91;;;3.21;100.00
19600;BME280;9947;57.722;12.012;2023-12-20T05:12:41;99862.19;;;3.23;100.00
19600;BME280;9947;57.722;12.012;2023-12-20T05:15:10;99859.50;;;3.23;100.00
19600;BME280;9947;57.722;12.012;2023-12-20T05:17:43;99860.28;;;3.25;100.00
19600;BME280;9947;57.722;12.012;2023-12-20T05:20:22;99854.06;;;3.25;100.00
19600;BME280;9947;57.722;12.012;2023-12-20T05:25:27;99858.16;;;3.30;100.00
19600;BME280;9947;57.722;12.012;2023-12-20T05:27:57;99844.63;;;3.33;100.00
19600;BME280;9947;57.722;12.012;2023-12-20T05:30:39;99845.38;;;3.35;100.00
19600;BME280;9947;57.722;12.012;2023-12-20T05:33:07;99849.00;;;3.34;100.00
19600;BME280;9947;57.722;12.012;2023-12-20T05:35:47;99847.91;;;3.38;100.00
19600;BME280;9947;57.722;12.012;2023-12-20T05:41:04;99841.31;;;3.44;100.00
19600;BME280;9947;57.722;12.012;2023-12-20T05:43:45;99832.25;;;3.47;100.00
19600;BME280;9947;57.722;12.012;2023-12-20T05:46:14;99827.66;;;3.49;100.00
19600;BME280;9947;57.722;12.012;2023-12-20T05:48:41;99817.84;;;3.49;100.00
19600;BME280;9947;57.722;12.012;2023-12-20T05:51:11;99810.78;;;3.48;100.00
19600;BME280;9947;57.722;12.012;2023-12-20T05:53:41;99804.56;;;3.48;100.00
19600;BME280;9947;57.722;12.012;2023-12-20T05:56:10;99807.16;;;3.49;100.00
19600;BME280;9947;57.722;12.012;2023-12-20T05:58:41;99792.94;;;3.49;100.00
19600;BME280;9947;57.722;12.012;2023-12-20T06:01:09;99786.63;;;3.50;100.00
19600;BME280;9947;57.722;12.012;2023-12-20T06:03:41;99792.16;;;3.47;100.00
19600;BME280;9947;57.722;12.012;2023-12-20T06:06:32;99774.03;;;3.37;100.00
19600;BME280;9947;57.722;12.012;2023-12-20T06:09:06;99765.16;;;3.37;100.00
19600;BME280;9947;57.722;12.012;2023-12-20T06:12:00;99768.69;;;3.37;100.00
19600;BME280;9947;57.722;12.012;2023-12-20T06:14:28;99765.00;;;3.40;100.00
19600;BME280;9947;57.722;12.012;2023-12-20T06:17:09;99764.69;;;3.30;100.00
19600;BME280;9947;57.722;12.012;2023-12-20T06:19:51;99764.88;;;3.27;100.00
19600;BME280;9947;57.722;12.012;2023-12-20T06:22:19;99756.88;;;3.27;100.00
19600;BME280;9947;57.722;12.012;2023-12-20T06:24:47;99753.53;;;3.24;100.00
19600;BME280;9947;57.722;12.012;2023-12-20T06:27:16;99749.03;;;3.24;100.00
19600;BME280;9947;57.722;12.012;2023-12-20T06:29:44;99735.13;;;3.19;100.00
19600;BME280;9947;57.722;12.012;2023-12-20T06:32:16;99721.38;;;3.11;100.00
19600;BME280;9947;57.722;12.012;2023-12-20T06:35:09;99699.16;;;3.10;100.00
19600;BME280;9947;57.722;12.012;2023-12-20T06:37:37;99690.28;;;3.10;100.00
19600;BME280;9947;57.722;12.012;2023-12-20T06:40:08;99691.84;;;3.14;100.00
19600;BME280;9947;57.722;12.012;2023-12-20T06:42:39;99677.63;;;3.14;100.00
19600;BME280;9947;57.722;12.012;2023-12-20T06:45:14;99671.50;;;3.12;100.00
19600;BME280;9947;57.722;12.012;2023-12-20T06:48:07;99667.59;;;3.17;100.00
19600;BME280;9947;57.722;12.012;2023-12-20T06:50:41;99656.72;;;3.20;100.00
19600;BME280;9947;57.722;12.012;2023-12-20T06:53:11;99646.59;;;3.11;100.00
19600;BME280;9947;57.722;12.012;2023-12-20T06:55:45;99640.34;;;2.98;100.00
19600;BME280;9947;57.722;12.012;2023-12-20T06:58:16;99632.63;;;2.93;100.00
19600;BME280;9947;57.722;12.012;2023-12-20T07:00:50;99644.06;;;2.95;100.00
19600;BME280;9947;57.722;12.012;2023-12-20T07:03:18;99643.41;;;2.92;100.00
19600;BME280;9947;57.722;12.012;2023-12-20T07:08:22;99655.50;;;2.97;100.00
19600;BME280;9947;57.722;12.012;2023-12-20T07:10:50;99661.69;;;2.98;100.00
19600;BME280;9947;57.722;12.012;2023-12-20T07:13:27;99663.91;;;2.91;100.00
19600;BME280;9947;57.722;12.012;2023-12-20T07:16:05;99670.09;;;2.92;100.00
19600;BME280;9947;57.722;12.012;2023-12-20T07:18:35;99671.25;;;2.88;100.00
19600;BME280;9947;57.722;12.012;2023-12-20T07:21:07;99675.88;;;2.84;100.00
19600;BME280;9947;57.722;12.012;2023-12-20T07:23:35;99669.69;;;2.84;100.00
19600;BME280;9947;57.722;12.012;2023-12-20T07:26:18;99686.09;;;2.77;100.00
19600;BME280;9947;57.722;12.012;2023-12-20T07:28:51;99685.31;;;2.75;100.00
19600;BME280;9947;57.722;12.012;2023-12-20T07:31:20;99677.41;;;2.74;100.00
19600;BME280;9947;57.722;12.012;2023-12-20T07:33:49;99687.03;;;2.76;100.00
19600;BME280;9947;57.722;12.012;2023-12-20T07:36:17;99692.19;;;2.79;100.00
19600;BME280;9947;57.722;12.012;2023-12-20T07:38:44;99692.19;;;2.79;100.00
19600;BME280;9947;57.722;12.012;2023-12-20T07:41:13;99693.03;;;2.80;100.00
19600;BME280;9947;57.722;12.012;2023-12-20T07:43:48;99694.38;;;2.73;100.00
19600;BME280;9947;57.722;12.012;2023-12-20T07:46:20;99691.25;;;2.66;100.00
19600;BME280;9947;57.722;12.012;2023-12-20T07:48:51;99700.97;;;2.67;100.00
19600;BME280;9947;57.722;12.012;2023-12-20T07:51:23;99701.06;;;2.66;100.00
19600;BME280;9947;57.722;12.012;2023-12-20T07:56:35;99708.97;;;2.67;100.00
19600;BME280;9947;57.722;12.012;2023-12-20T07:59:02;99698.56;;;2.63;100.00
19600;BME280;9947;57.722;12.012;2023-12-20T08:01:40;99698.38;;;2.66;100.00
19600;BME280;9947;57.722;12.012;2023-12-20T08:07:02;99699.25;;;2.66;100.00
19600;BME280;9947;57.722;12.012;2023-12-20T08:09:33;99701.72;;;2.69;100.00
19600;BME280;9947;57.722;12.012;2023-12-20T08:14:31;99720.13;;;2.74;100.00
19600;BME280;9947;57.722;12.012;2023-12-20T08:17:10;99711.25;;;2.73;100.00
19600;BME280;9947;57.722;12.012;2023-12-20T08:19:38;99703.34;;;2.72;100.00
19600;BME280;9947;57.722;12.012;2023-12-20T08:22:06;99712.88;;;2.76;100.00
19600;BME280;9947;57.722;12.012;2023-12-20T08:24:33;99712.13;;;2.88;100.00
19600;BME280;9947;57.722;12.012;2023-12-20T08:29:32;99727.09;;;3.05;100.00
19600;BME280;9947;57.722;12.012;2023-12-20T08:32:02;99728.63;;;3.09;100.00
19600;BME280;9947;57.722;12.012;2023-12-20T08:34:30;99727.75;;;3.08;100.00
19600;BME280;9947;57.722;12.012;2023-12-20T08:39:24;99722.31;;;3.10;100.00
19600;BME280;9947;57.722;12.012;2023-12-20T08:41:54;99715.78;;;3.16;100.00
19600;BME280;9947;57.722;12.012;2023-12-20T08:44:27;99712.59;;;3.23;100.00
19600;BME280;9947;57.722;12.012;2023-12-20T08:49:24;99700.22;;;3.22;100.00
19600;BME280;9947;57.722;12.012;2023-12-20T08:52:05;99691.25;;;3.23;100.00
19600;BME280;9947;57.722;12.012;2023-12-20T08:54:51;99679.41;;;3.27;100.00
19600;BME280;9947;57.722;12.012;2023-12-20T08:57:25;99666.81;;;3.29;100.00
19600;BME280;9947;57.722;12.012;2023-12-20T09:00:05;99650.88;;;3.28;100.00
19600;BME280;9947;57.722;12.012;2023-12-20T09:02:34;99639.66;;;3.23;100.00
19600;BME280;9947;57.722;12.012;2023-12-20T09:05:08;99620.09;;;3.22;100.00
19600;BME280;9947;57.722;12.012;2023-12-20T09:07:36;99606.84;;;3.21;100.00
19600;BME280;9947;57.722;12.012;2023-12-20T09:10:06;99588.81;;;3.24;100.00
19600;BME280;9947;57.722;12.012;2023-12-20T09:12:49;99580.03;;;3.22;100.00
19600;BME280;9947;57.722;12.012;2023-12-20T09:15:18;99573.19;;;3.18;100.00
19600;BME280;9947;57.722;12.012;2023-12-20T09:17:45;99564.88;;;3.23;100.00
19600;BME280;9947;57.722;12.012;2023-12-20T09:20:13;99547.22;;;3.20;100.00
19600;BME280;9947;57.722;12.012;2023-12-20T09:22:40;99532.72;;;3.24;100.00
19600;BME280;9947;57.722;12.012;2023-12-20T09:25:09;99525.34;;;3.28;100.00
19600;BME280;9947;57.722;12.012;2023-12-20T09:27:38;99516.28;;;3.30;100.00
19600;BME280;9947;57.722;12.012;2023-12-20T09:30:10;99507.84;;;3.36;100.00
19600;BME280;9947;57.722;12.012;2023-12-20T09:32:37;99500.41;;;3.42;100.00
19600;BME280;9947;57.722;12.012;2023-12-20T09:35:10;99491.66;;;3.52;100.00
19600;BME280;9947;57.722;12.012;2023-12-20T09:38:13;99470.59;;;3.48;100.00
19600;BME280;9947;57.722;12.012;2023-12-20T09:43:24;99440.16;;;3.50;100.00
19600;BME280;9947;57.722;12.012;2023-12-20T09:45:54;99430.75;;;3.45;100.00
19600;BME280;9947;57.722;12.012;2023-12-20T09:48:26;99425.59;;;3.42;100.00
19600;BME280;9947;57.722;12.012;2023-12-20T09:51:05;99421.84;;;3.31;100.00
19600;BME280;9947;57.722;12.012;2023-12-20T09:53:37;99428.78;;;3.34;100.00
19600;BME280;9947;57.722;12.012;2023-12-20T09:56:12;99440.78;;;3.41;100.00
19600;BME280;9947;57.722;12.012;2023-12-20T09:58:40;99439.72;;;3.44;100.00
19600;BME280;9947;57.722;12.012;2023-12-20T10:01:22;99434.25;;;3.45;100.00
19600;BME280;9947;57.722;12.012;2023-12-20T10:04:06;99420.91;;;3.45;100.00
19600;BME280;9947;57.722;12.012;2023-12-20T10:06:34;99423.69;;;3.44;100.00
19600;BME280;9947;57.722;12.012;2023-12-20T10:09:06;99421.56;;;3.49;100.00
19600;BME280;9947;57.722;12.012;2023-12-20T10:11:35;99406.06;;;3.54;100.00
19600;BME280;9947;57.722;12.012;2023-12-20T10:14:10;99400.19;;;3.49;100.00
19600;BME280;9947;57.722;12.012;2023-12-20T10:16:38;99398.34;;;3.49;100.00
19600;BME280;9947;57.722;12.012;2023-12-20T10:19:11;99396.53;;;3.50;100.00
19600;BME280;9947;57.722;12.012;2023-12-20T10:21:45;99403.81;;;3.48;100.00
19600;BME280;9947;57.722;12.012;2023-12-20T10:24:20;99393.44;;;3.43;100.00
19600;BME280;9947;57.722;12.012;2023-12-20T10:26:48;99393.88;;;3.50;100.00
19600;BME280;9947;57.722;12.012;2023-12-20T10:29:33;99394.19;;;3.58;100.00
19600;BME280;9947;57.722;12.012;2023-12-20T10:32:21;99394.72;;;3.63;100.00
19600;BME280;9947;57.722;12.012;2023-12-20T10:34:49;99386.50;;;3.66;100.00
19600;BME280;9947;57.722;12.012;2023-12-20T10:37:18;99379.25;;;3.68;100.00
19600;BME280;9947;57.722;12.012;2023-12-20T10:39:52;99367.22;;;3.86;100.00
19600;BME280;9947;57.722;12.012;2023-12-20T10:42:25;99347.47;;;3.76;100.00
19600;BME280;9947;57.722;12.012;2023-12-20T10:44:54;99335.31;;;3.72;100.00
19600;BME280;9947;57.722;12.012;2023-12-20T10:47:22;99303.75;;;3.77;100.00
19600;BME280;9947;57.722;12.012;2023-12-20T10:50:05;99299.19;;;3.66;100.00
19600;BME280;9947;57.722;12.012;2023-12-20T10:52:37;99295.22;;;3.59;100.00
19600;BME280;9947;57.722;12.012;2023-12-20T10:55:18;99304.09;;;3.60;100.00
19600;BME280;9947;57.722;12.012;2023-12-20T10:57:49;99299.38;;;3.63;100.00
19600;BME280;9947;57.722;12.012;2023-12-20T11:00:19;99295.94;;;3.74;100.00
19600;BME280;9947;57.722;12.012;2023-12-20T11:02:49;99300.84;;;3.93;100.00
19600;BME280;9947;57.722;12.012;2023-12-20T11:05:31;99293.97;;;4.01;100.00
19600;BME280;9947;57.722;12.012;2023-12-20T11:08:06;99280.94;;;3.97;100.00
19600;BME280;9947;57.722;12.012;2023-12-20T11:10:51;99279.75;;;3.88;100.00
19600;BME280;9947;57.722;12.012;2023-12-20T11:13:27;99276.06;;;3.78;100.00
19600;BME280;9947;57.722;12.012;2023-12-20T11:15:58;99281.97;;;3.70;100.00
19600;BME280;9947;57.722;12.012;2023-12-20T11:18:29;99268.25;;;3.75;100.00
19600;BME280;9947;57.722;12.012;2023-12-20T11:23:24;99276.63;;;3.70;100.00
19600;BME280;9947;57.722;12.012;2023-12-20T11:25:58;99263.75;;;3.76;100.00
19600;BME280;9947;57.722;12.012;2023-12-20T11:28:44;99266.56;;;3.74;100.00
19600;BME280;9947;57.722;12.012;2023-12-20T11:31:14;99269.41;;;3.84;100.00
19600;BME280;9947;57.722;12.012;2023-12-20T11:33:44;99255.63;;;3.77;100.00
19600;BME280;9947;57.722;12.012;2023-12-20T11:36:19;99251.53;;;3.84;100.00
19600;BME280;9947;57.722;12.012;2023-12-20T11:38:55;99231.75;;;3.87;100.00
19600;BME280;9947;57.722;12.012;2023-12-20T11:41:39;99212.53;;;4.06;100.00
19600;BME280;9947;57.722;12.012;2023-12-20T11:44:09;99192.75;;;4.08;100.00
19600;BME280;9947;57.722;12.012;2023-12-20T11:46:52;99159.44;;;4.12;100.00
19600;BME280;9947;57.722;12.012;2023-12-20T11:49:35;99099.53;;;4.15;100.00
19600;BME280;9947;57.722;12.012;2023-12-20T11:52:06;99042.69;;;4.24;100.00
19600;BME280;9947;57.722;12.012;2023-12-20T11:54:34;98985.06;;;4.20;100.00
19600;BME280;9947;57.722;12.012;2023-12-20T11:57:05;98926.34;;;4.18;100.00
19600;BME280;9947;57.722;12.012;2023-12-20T11:59:51;98881.34;;;4.12;100.00
19600;BME280;9947;57.722;12.012;2023-12-20T12:02:24;98842.06;;;4.13;100.00
19600;BME280;9947;57.722;12.012;2023-12-20T12:04:51;98816.81;;;4.17;100.00
19600;BME280;9947;57.722;12.012;2023-12-20T12:07:30;98801.25;;;4.22;100.00
19600;BME280;9947;57.722;12.012;2023-12-20T12:09:58;98805.88;;;4.20;100.00
19600;BME280;9947;57.722;12.012;2023-12-20T12:12:28;98794.53;;;4.27;100.00
19600;BME280;9947;57.722;12.012;2023-12-20T12:15:10;98789.56;;;4.23;100.00
19600;BME280;9947;57.722;12.012;2023-12-20T12:17:40;98792.25;;;4.23;100.00
19600;BME280;9947;57.722;12.012;2023-12-20T12:20:09;98784.22;;;4.23;100.00
19600;BME280;9947;57.722;12.012;2023-12-20T12:22:39;98793.09;;;4.23;100.00
19600;BME280;9947;57.722;12.012;2023-12-20T12:25:12;98791.28;;;4.13;100.00
19600;BME280;9947;57.722;12.012;2023-12-20T12:27:50;98788.84;;;4.10;100.00
19600;BME280;9947;57.722;12.012;2023-12-20T12:30:21;98785.59;;;4.06;100.00
19600;BME280;9947;57.722;12.012;2023-12-20T12:32:50;98786.22;;;3.98;100.00
19600;BME280;9947;57.722;12.012;2023-12-20T12:35:18;98793.25;;;3.88;100.00
19600;BME280;9947;57.722;12.012;2023-12-20T12:37:45;98785.84;;;4.03;100.00
19600;BME280;9947;57.722;12.012;2023-12-20T12:40:13;98779.25;;;4.07;100.00
19600;BME280;9947;57.722;12.012;2023-12-20T12:42:44;98767.34;;;4.11;100.00
19600;BME280;9947;57.722;12.012;2023-12-20T12:45:13;98765.38;;;4.13;100.00
19600;BME280;9947;57.722;12.012;2023-12-20T12:47:48;98772.56;;;4.13;100.00
19600;BME280;9947;57.722;12.012;2023-12-20T12:50:37;98784.81;;;4.15;100.00
19600;BME280;9947;57.722;12.012;2023-12-20T12:56:00;98779.50;;;4.04;100.00
19600;BME280;9947;57.722;12.012;2023-12-20T13:02:09;98797.72;;;4.10;100.00
19600;BME280;9947;57.722;12.012;2023-12-20T13:04:47;98803.31;;;4.07;100.00
19600;BME280;9947;57.722;12.012;2023-12-20T13:07:29;98811.72;;;4.02;100.00
19600;BME280;9947;57.722;12.012;2023-12-20T13:09:56;98816.56;;;4.09;100.00
19600;BME280;9947;57.722;12.012;2023-12-20T13:12:23;98814.75;;;4.09;100.00
19600;BME280;9947;57.722;12.012;2023-12-20T13:14:54;98818.75;;;4.03;100.00
19600;BME280;9947;57.722;12.012;2023-12-20T13:17:23;98821.44;;;4.03;100.00
19600;BME280;9947;57.722;12.012;2023-12-20T13:19:58;98825.69;;;4.06;100.00
19600;BME280;9947;57.722;12.012;2023-12-20T13:22:25;98816.81;;;4.06;100.00
19600;BME280;9947;57.722;12.012;2023-12-20T13:24:54;98808.91;;;4.04;100.00
19600;BME280;9947;57.722;12.012;2023-12-20T13:27:23;98798.34;;;4.02;100.00
19600;BME280;9947;57.722;12.012;2023-12-20T13:29:51;98808.56;;;3.86;100.00
19600;BME280;9947;57.722;12.012;2023-12-20T13:32:21;98787.19;;;3.75;100.00
19600;BME280;9947;57.722;12.012;2023-12-20T13:34:51;98797.66;;;3.67;100.00
19600;BME280;9947;57.722;12.012;2023-12-20T13:37:18;98798.00;;;3.62;100.00
19600;BME280;9947;57.722;12.012;2023-12-20T13:39:46;98800.91;;;3.48;100.00
19600;BME280;9947;57.722;12.012;2023-12-20T13:42:14;98795.22;;;3.42;100.00
19600;BME280;9947;57.722;12.012;2023-12-20T13:44:43;98795.66;;;3.35;100.00
19600;BME280;9947;57.722;12.012;2023-12-20T13:47:10;98807.69;;;3.30;100.00
19600;BME280;9947;57.722;12.012;2023-12-20T13:49:40;98809.25;;;3.21;100.00
19600;BME280;9947;57.722;12.012;2023-12-20T13:52:09;98812.41;;;3.15;100.00
19600;BME280;9947;57.722;12.012;2023-12-20T13:54:37;98828.19;;;3.18;100.00
19600;BME280;9947;57.722;12.012;2023-12-20T13:57:06;98819.19;;;3.19;100.00
19600;BME280;9947;57.722;12.012;2023-12-20T13:59:34;98820.41;;;3.15;100.00
19600;BME280;9947;57.722;12.012;2023-12-20T14:02:02;98819.63;;;3.02;100.00
19600;BME280;9947;57.722;12.012;2023-12-20T14:04:30;98832.84;;;2.92;100.00
19600;BME280;9947;57.722;12.012;2023-12-20T14:06:59;98848.44;;;2.86;100.00
19600;BME280;9947;57.722;12.012;2023-12-20T14:09:27;98857.13;;;2.76;100.00